createdAt,value
2023-07-25T00:03:29.811Z,40.6
2023-07-25T00:08:29.811Z,39.96
2023-07-25T00:13:29.814Z,39.74
2023-07-25T00:18:29.816Z,39.95
2023-07-25T00:23:29.802Z,40.11
2023-07-25T00:28:29.885Z,39.99
2023-07-25T00:33:30.019Z,40.1
2023-07-25T00:38:29.848Z,40.28
2023-07-25T00:43:30.174Z,39.85
2023-07-25T00:48:30.025Z,40.19
2023-07-25T00:53:29.830Z,40.34
2023-07-25T00:58:29.816Z,39.96
2023-07-25T01:03:29.834Z,39.54
2023-07-25T01:08:29.820Z,39.81
2023-07-25T01:13:29.838Z,40.02
2023-07-25T01:18:29.838Z,40.57
2023-07-25T01:23:29.825Z,40.84
2023-07-25T01:28:29.842Z,40.71
2023-07-25T01:33:29.829Z,40.46
2023-07-25T01:38:29.847Z,40.4
2023-07-25T01:43:29.848Z,40.66
2023-07-25T01:48:29.851Z,40.79
2023-07-25T01:53:29.937Z,41
2023-07-25T01:58:29.838Z,40.9
2023-07-25T02:03:29.856Z,40.95
2023-07-25T02:08:30.045Z,40.69
2023-07-25T02:13:29.860Z,40.63
2023-07-25T02:18:29.861Z,40.59
2023-07-25T02:23:29.847Z,40.44
2023-07-25T02:28:29.864Z,40.29
2023-07-25T02:33:29.851Z,40.29
2023-07-25T02:38:29.898Z,40
2023-07-25T02:43:29.871Z,40.06
2023-07-25T02:48:29.873Z,40.4
2023-07-25T02:53:29.937Z,40.76
2023-07-25T02:58:30.090Z,40.34
2023-07-25T03:03:29.877Z,40.19
2023-07-25T03:08:29.864Z,40.04
2023-07-25T03:13:30.058Z,40.27
2023-07-25T03:18:29.883Z,40.03
2023-07-25T03:23:29.919Z,39.81
2023-07-25T03:28:29.887Z,39.93
2023-07-25T03:33:29.927Z,40.2
2023-07-25T03:38:29.890Z,40.26
2023-07-25T03:43:29.876Z,39.96
2023-07-25T03:48:29.894Z,40.19
2023-07-25T03:53:29.895Z,40.37
2023-07-25T03:58:29.881Z,40.21
2023-07-25T04:03:29.899Z,39.88
2023-07-25T04:08:29.885Z,38.99
2023-07-25T04:13:29.903Z,38.6
2023-07-25T04:18:29.905Z,38.42
2023-07-25T04:23:29.907Z,38.37
2023-07-25T04:28:29.933Z,38.44
2023-07-25T04:33:29.894Z,38.6
2023-07-25T04:38:29.911Z,38.2
2023-07-25T04:43:29.898Z,38.61
2023-07-25T04:48:30.170Z,38.94
2023-07-25T04:53:29.946Z,38.9
2023-07-25T04:58:29.919Z,38.69
2023-07-25T05:03:29.986Z,38.23
2023-07-25T05:08:29.907Z,37.87
2023-07-25T05:13:30.042Z,38.33
2023-07-25T05:18:30.221Z,38.75
2023-07-25T05:23:29.929Z,38.99
2023-07-25T05:28:29.930Z,39.37
2023-07-25T05:33:29.916Z,40.09
2023-07-25T05:38:29.934Z,40.63
2023-07-25T05:43:29.920Z,40.46
2023-07-25T05:48:30.135Z,40.19
2023-07-25T05:53:29.939Z,39.68
2023-07-25T05:58:30.100Z,39.56
2023-07-25T06:03:30.218Z,39.43
2023-07-25T06:08:30.073Z,39.03
2023-07-25T06:13:29.947Z,38.86
2023-07-25T06:18:30.068Z,38.56
2023-07-25T06:23:30.080Z,38.26
2023-07-25T06:28:29.952Z,38.23
2023-07-25T06:33:29.955Z,38.53
2023-07-25T06:38:29.957Z,38.48
2023-07-25T06:43:30.007Z,38.7
2023-07-25T06:48:29.959Z,38.81
2023-07-25T06:53:29.947Z,38.99
2023-07-25T06:58:30.119Z,39.11
2023-07-25T07:03:29.966Z,39.79
2023-07-25T07:08:29.952Z,40.37
2023-07-25T07:13:29.970Z,40.76
2023-07-25T07:18:29.956Z,40.61
2023-07-25T07:23:29.974Z,39.89
2023-07-25T07:28:29.962Z,39.68
2023-07-25T07:33:29.978Z,39.54
2023-07-25T07:38:30.020Z,39.21
2023-07-25T07:43:29.965Z,38.97
2023-07-25T07:48:29.983Z,37.89
2023-07-25T07:53:29.969Z,37.24
2023-07-25T07:58:29.987Z,37.14
2023-07-25T08:03:29.990Z,37.74
2023-07-25T08:08:30.300Z,37.39
2023-07-25T08:13:30.177Z,37.22
2023-07-25T08:18:29.980Z,38.19
2023-07-25T08:23:29.998Z,38.55
2023-07-25T08:28:29.984Z,39.3
2023-07-25T08:33:30.001Z,39.7
2023-07-25T08:38:30.003Z,39.94
2023-07-25T08:43:30.389Z,40.77
2023-07-25T08:48:30.008Z,40.82
2023-07-25T08:53:29.994Z,40.07
2023-07-25T08:58:30.012Z,39.63
2023-07-25T09:03:30.014Z,39.25
2023-07-25T09:08:30.016Z,38.45
2023-07-25T09:13:30.061Z,36.4
2023-07-25T09:18:30.308Z,31.99
2023-07-25T09:23:30.074Z,33.92
2023-07-25T09:28:30.009Z,34.86
2023-07-25T09:33:30.148Z,28.37
2023-07-25T09:38:30.030Z,25.33
2023-07-25T09:43:30.171Z,26.32
2023-07-25T09:48:30.035Z,25.5
2023-07-25T09:53:30.021Z,26.03
2023-07-25T09:58:30.039Z,27.27
2023-07-25T10:03:30.027Z,30.16
2023-07-25T10:08:30.187Z,33.38
2023-07-25T10:13:30.048Z,36.35
2023-07-25T10:18:30.035Z,34.07
2023-07-25T10:23:30.199Z,31.78
2023-07-25T10:28:30.041Z,30.88
2023-07-25T10:33:30.059Z,34.37
2023-07-25T10:38:30.061Z,37.66
2023-07-25T10:43:30.064Z,40.58
2023-07-25T10:48:30.335Z,43.46
2023-07-25T10:53:30.053Z,43.32
2023-07-25T10:58:30.072Z,41.47
2023-07-25T11:03:30.058Z,35.88
2023-07-25T11:08:30.302Z,32.29
2023-07-25T11:13:30.079Z,32.21
2023-07-25T11:18:30.281Z,33.56
2023-07-25T11:23:30.215Z,36.92
2023-07-25T11:28:30.071Z,38.66
2023-07-25T11:33:30.090Z,36.31
2023-07-25T11:38:30.076Z,37.39
2023-07-25T11:43:30.095Z,36.71
2023-07-25T11:48:30.097Z,35.36
2023-07-25T11:53:30.099Z,32.82
2023-07-25T11:58:30.102Z,35.68
2023-07-25T12:03:30.149Z,35.78
2023-07-25T12:08:30.141Z,32.09
2023-07-25T12:13:30.111Z,33.63
2023-07-25T12:18:30.283Z,36.37
2023-07-25T12:23:30.253Z,39.23
2023-07-25T12:28:30.103Z,37.36
2023-07-25T12:33:30.120Z,38.34
2023-07-25T12:38:30.186Z,35.87
2023-07-25T12:43:30.190Z,34.65
2023-07-25T12:48:30.204Z,37.43
2023-07-25T12:53:30.341Z,39.54
2023-07-25T12:58:30.477Z,41.63
2023-07-25T13:03:30.121Z,43
2023-07-25T13:08:30.300Z,43.72
2023-07-25T13:13:30.318Z,46.23
2023-07-25T13:18:30.144Z,49.21
2023-07-25T13:23:30.145Z,49.48
2023-07-25T13:28:30.131Z,48.54
2023-07-25T13:33:30.150Z,45.18
2023-07-25T13:38:30.263Z,39.67
2023-07-25T13:43:30.154Z,36.23
2023-07-25T13:48:30.156Z,36.75
2023-07-25T13:53:30.159Z,37.64
2023-07-25T13:58:30.487Z,36.22
2023-07-25T14:03:30.147Z,32.72
2023-07-25T14:08:30.166Z,31.46
2023-07-25T14:13:30.208Z,30.72
2023-07-25T14:18:30.171Z,33.2
2023-07-25T14:23:30.465Z,37.17
2023-07-25T14:28:30.176Z,37.45
2023-07-25T14:33:30.178Z,40.01
2023-07-25T14:38:30.374Z,40.18
2023-07-25T14:43:30.182Z,40.61
2023-07-25T14:48:30.170Z,41.11
2023-07-25T14:53:30.188Z,41.55
2023-07-25T14:58:30.190Z,41.43
2023-07-25T15:03:30.447Z,41.39
2023-07-25T15:08:30.195Z,41.7
2023-07-25T15:18:30.198Z,41.62
2023-07-25T15:23:30.375Z,41.37
2023-07-25T15:28:30.204Z,40.13
2023-07-25T15:33:30.464Z,38.34
2023-07-25T15:38:30.192Z,36.89
2023-07-25T15:43:30.210Z,36.77
2023-07-25T15:48:30.349Z,34.65
2023-07-25T15:53:30.216Z,34.83
2023-07-25T15:58:30.218Z,36.06
2023-07-25T16:03:35.802Z,37.66
2023-07-25T16:08:30.222Z,38.85
2023-07-25T16:13:30.374Z,39.8
2023-07-25T16:18:30.227Z,39.42
2023-07-25T16:23:30.214Z,38.65
2023-07-25T16:28:30.232Z,38.45
2023-07-25T16:33:30.461Z,38.3
2023-07-25T16:38:30.221Z,39.01
2023-07-25T16:43:30.238Z,39.04
2023-07-25T16:48:30.554Z,39.81
2023-07-25T16:53:30.314Z,40.35
2023-07-25T16:58:30.487Z,40.77
2023-07-25T17:03:30.392Z,41.06
2023-07-25T17:08:30.249Z,41.63
2023-07-25T17:13:30.237Z,42
2023-07-25T17:18:30.255Z,43.1
2023-07-25T17:23:30.241Z,44.31
2023-07-25T17:28:30.283Z,45.03
2023-07-25T17:33:30.261Z,45.47
2023-07-25T17:38:30.574Z,45.83
2023-07-25T17:43:30.411Z,46.09
2023-07-25T17:48:30.251Z,45.87
2023-07-25T17:53:30.268Z,45.62
2023-07-25T17:58:30.503Z,45.61
2023-07-25T18:03:30.272Z,45.53
2023-07-25T18:08:30.273Z,45.29
2023-07-25T18:13:30.260Z,44.84
2023-07-25T18:18:30.277Z,44.33
2023-07-25T18:23:30.263Z,43.91
2023-07-25T18:28:30.315Z,43.47
2023-07-25T18:33:30.283Z,43.77
2023-07-25T18:38:30.285Z,43.58
2023-07-25T18:43:30.285Z,43.07
2023-07-25T18:48:30.421Z,42.93
2023-07-25T18:53:30.290Z,42.71
2023-07-25T18:58:30.276Z,42.55
2023-07-25T19:03:30.399Z,42.05
2023-07-25T19:08:30.294Z,42.14
2023-07-25T19:13:30.377Z,42.3
2023-07-25T19:18:30.299Z,42.44
2023-07-25T19:23:30.284Z,42.79
2023-07-25T19:28:30.627Z,42.71
2023-07-25T19:33:30.546Z,42.48
2023-07-25T19:38:30.306Z,42.41
2023-07-25T19:43:30.307Z,42.3
2023-07-25T19:48:30.294Z,42.19
2023-07-25T19:53:30.310Z,42.05
2023-07-25T19:58:30.395Z,42.12
2023-07-25T20:03:30.365Z,41.9
2023-07-25T20:08:30.315Z,42.39
2023-07-25T20:13:30.318Z,42.3
2023-07-25T20:18:30.333Z,42.45
2023-07-25T20:23:30.305Z,42.6
2023-07-25T20:28:30.364Z,42.64
2023-07-25T20:33:30.427Z,42.42
2023-07-25T20:38:30.350Z,42.48
2023-07-25T20:43:30.328Z,42.27
2023-07-25T20:48:30.391Z,42.14
2023-07-25T20:53:30.330Z,42.25
2023-07-25T20:58:30.317Z,42.15
2023-07-25T21:03:30.334Z,42.18
2023-07-25T21:08:30.335Z,42.19
2023-07-25T21:13:30.338Z,42.21
2023-07-25T21:18:30.402Z,42.28
2023-07-25T21:23:30.325Z,41.91
2023-07-25T21:28:30.344Z,41.68
2023-07-25T21:33:30.328Z,41.44
2023-07-25T21:38:30.484Z,41.31
2023-07-25T21:43:30.371Z,41.33
2023-07-25T21:48:30.349Z,41.48
2023-07-25T21:53:30.381Z,41.23
2023-07-25T21:58:30.336Z,41.19
2023-07-25T22:03:30.354Z,40.88
2023-07-25T22:08:30.401Z,40.8
2023-07-25T22:13:30.486Z,41.16
2023-07-25T22:18:30.358Z,41.32
2023-07-25T22:23:30.345Z,41.55
2023-07-25T22:28:30.533Z,41.83
2023-07-25T22:33:30.349Z,41.94
2023-07-25T22:38:30.400Z,41.99
2023-07-25T22:43:30.352Z,41.55
2023-07-25T22:48:30.369Z,41.19
2023-07-25T22:53:30.394Z,41.06
2023-07-25T22:58:30.356Z,41.08
2023-07-25T23:03:30.373Z,41.23
2023-07-25T23:08:30.359Z,41.31
2023-07-25T23:13:30.377Z,41.13
2023-07-25T23:18:30.556Z,40.94
2023-07-25T23:23:30.380Z,40.53
2023-07-25T23:28:30.514Z,40.88
2023-07-25T23:33:30.368Z,40.9
2023-07-25T23:38:30.385Z,40.74
2023-07-25T23:43:30.371Z,40.82
2023-07-25T23:48:30.706Z,40.8
2023-07-25T23:53:36.345Z,40.89
2023-07-25T23:58:30.376Z,40.6
